Time;durP1;ratioP1;P1;durP2;ratioP2;P2;SDS_P1;SDS_P2;PMS_P1;PMS_P2;Temp;Humidity;BMP_temperature;BMP_pressure;BME280_temperature;BME280_humidity;BME280_pressure;Samples;Min_cycle;Max_cycle;Signal;HPM_P1;HPM_P2
2023/03/12 00:01:37;;;;;;;;;;;;;;;4.90;62.02;99103.66;5097120;28;2699;-78
2023/03/12 00:04:29;;;;;;;;;;;;;;;4.93;61.87;99105.06;5096706;28;3341;-79
2023/03/12 00:07:22;;;;;;;;;;;;;;;4.91;61.90;99104.47;5094173;28;3022;-80
2023/03/12 00:10:13;;;;;;;;;;;;;;;4.91;61.70;99109.78;5098015;28;2661;-78
2023/03/12 00:13:04;;;;;;;;;;;;;;;4.89;61.96;99112.69;5099905;28;3377;-80
2023/03/12 00:15:56;;;;;;;;;;;;;;;4.88;61.88;99113.75;5093836;28;2495;-81
2023/03/12 00:18:48;;;;;;;;;;;;;;;4.88;61.99;99126.25;5092841;28;2555;-79
2023/03/12 00:21:40;;;;;;;;;;;;;;;4.85;61.79;99124.00;5097064;28;3396;-78
2023/03/12 00:24:32;;;;;;;;;;;;;;;4.87;61.81;99112.09;5093951;28;2948;-80
2023/03/12 00:27:24;;;;;;;;;;;;;;;4.88;61.99;99131.56;5103912;28;3669;-81
2023/03/12 00:30:16;;;;;;;;;;;;;;;4.86;61.96;99123.00;5090801;28;3583;-80
2023/03/12 00:33:08;;;;;;;;;;;;;;;4.85;61.87;99130.16;5092876;28;2579;-79
2023/03/12 00:36:00;;;;;;;;;;;;;;;4.87;61.80;99132.63;5091466;28;2900;-79
2023/03/12 00:38:52;;;;;;;;;;;;;;;4.85;61.79;99134.69;5096051;28;3484;-79
2023/03/12 00:41:44;;;;;;;;;;;;;;;4.83;61.78;99137.56;5111239;28;2588;-79
2023/03/12 00:44:35;;;;;;;;;;;;;;;4.84;61.88;99141.88;5092783;28;3014;-78
2023/03/12 00:47:27;;;;;;;;;;;;;;;4.83;61.66;99145.59;5090160;28;3522;-79
2023/03/12 00:50:19;;;;;;;;;;;;;;;4.83;61.66;99140.25;5091119;28;3028;-78
2023/03/12 00:53:11;;;;;;;;;;;;;;;4.82;61.75;99135.13;5094737;28;2620;-78
2023/03/12 00:56:02;;;;;;;;;;;;;;;4.84;61.46;99149.06;5094480;28;2658;-80
2023/03/12 00:58:54;;;;;;;;;;;;;;;4.83;61.57;99147.44;5089561;28;3174;-79
2023/03/12 01:01:45;;;;;;;;;;;;;;;4.83;61.66;99147.44;5090563;28;2935;-78
2023/03/12 01:04:37;;;;;;;;;;;;;;;4.80;61.54;99143.34;5097299;28;2496;-78
2023/03/12 01:07:29;;;;;;;;;;;;;;;4.81;61.79;99158.31;5089935;28;3373;-79
2023/03/12 01:10:20;;;;;;;;;;;;;;;4.81;61.58;99157.50;5091004;28;2555;-79
2023/03/12 01:13:12;;;;;;;;;;;;;;;4.80;61.66;99159.34;5100616;28;2683;-79
2023/03/12 01:16:04;;;;;;;;;;;;;;;4.77;61.70;99157.94;5091508;28;2933;-79
2023/03/12 01:18:56;;;;;;;;;;;;;;;4.77;61.51;99165.94;5104095;28;3654;-77
2023/03/12 01:21:48;;;;;;;;;;;;;;;4.77;61.58;99167.78;5103302;28;3657;-79
2023/03/12 01:24:40;;;;;;;;;;;;;;;4.74;61.61;99169.03;5105157;28;3831;-78
2023/03/12 01:27:32;;;;;;;;;;;;;;;4.74;61.76;99177.03;5101293;28;3686;-78
2023/03/12 01:30:24;;;;;;;;;;;;;;;4.73;61.66;99183.38;5108330;28;3583;-77
2023/03/12 01:33:17;;;;;;;;;;;;;;;4.74;61.67;99176.22;5096825;28;3497;-80
2023/03/12 01:36:08;;;;;;;;;;;;;;;4.72;61.80;99183.63;5090814;28;2540;-78
2023/03/12 01:39:00;;;;;;;;;;;;;;;4.70;61.97;99181.16;5089920;28;3130;-77
2023/03/12 01:41:52;;;;;;;;;;;;;;;4.71;61.83;99185.47;5088094;28;3376;-79
2023/03/12 01:44:44;;;;;;;;;;;;;;;4.68;61.74;99182.41;5099574;28;3367;-79
2023/03/12 01:47:36;;;;;;;;;;;;;;;4.67;61.64;99186.91;5089261;28;2505;-79
2023/03/12 01:50:28;;;;;;;;;;;;;;;4.69;61.65;99189.38;5088849;28;2986;-79
2023/03/12 01:53:20;;;;;;;;;;;;;;;4.66;61.79;99192.47;5091728;28;3320;-78
2023/03/12 01:56:14;;;;;;;;;;;;;;;4.64;61.77;99208.66;5090427;28;3666;-80
2023/03/12 01:59:06;;;;;;;;;;;;;;;4.62;61.64;99191.25;5094437;28;2504;-79
2023/03/12 02:01:58;;;;;;;;;;;;;;;4.62;61.69;99193.91;5097284;28;2963;-78
2023/03/12 02:04:51;;;;;;;;;;;;;;;4.62;61.65;99204.56;5087483;28;3703;-80
2023/03/12 02:07:42;;;;;;;;;;;;;;;4.61;61.36;99201.09;5089112;28;3517;-78
2023/03/12 02:10:36;;;;;;;;;;;;;;;4.62;61.54;99205.41;5102692;28;2497;-78
2023/03/12 02:13:28;;;;;;;;;;;;;;;4.59;61.51;99205.00;5097186;28;3794;-79
2023/03/12 02:16:20;;;;;;;;;;;;;;;4.61;61.40;99210.94;5104691;28;3829;-79
2023/03/12 02:19:11;;;;;;;;;;;;;;;4.59;61.56;99207.69;5109465;28;3446;-78
2023/03/12 02:22:04;;;;;;;;;;;;;;;4.55;61.27;99210.78;5107596;28;4107;-77
2023/03/12 02:24:56;;;;;;;;;;;;;;;4.57;61.34;99209.75;5112774;22;3544;-79
2023/03/12 02:27:48;;;;;;;;;;;;;;;4.58;61.25;99220.19;5135059;22;3711;-78
2023/03/12 02:30:40;;;;;;;;;;;;;;;4.53;61.35;99220.84;5103901;27;2518;-79
2023/03/12 02:33:32;;;;;;;;;;;;;;;4.55;61.33;99233.94;5111750;27;2410;-79
2023/03/12 02:36:23;;;;;;;;;;;;;;;4.55;61.25;99223.28;5107940;27;1533;-78
2023/03/12 02:39:15;;;;;;;;;;;;;;;4.53;61.30;99233.38;5107926;28;2173;-78
2023/03/12 02:42:07;;;;;;;;;;;;;;;4.51;61.09;99219.44;5102575;28;2336;-79
2023/03/12 02:44:59;;;;;;;;;;;;;;;4.51;60.97;99220.22;5106229;27;2261;-79
2023/03/12 02:47:51;;;;;;;;;;;;;;;4.52;61.21;99226.38;5108053;27;2183;-79
2023/03/12 02:50:43;;;;;;;;;;;;;;;4.48;61.00;99219.84;5107642;28;2805;-78
2023/03/12 02:53:35;;;;;;;;;;;;;;;4.49;60.88;99227.63;5104324;28;2327;-78
2023/03/12 02:56:27;;;;;;;;;;;;;;;4.49;60.61;99230.28;5105423;28;2237;-79
2023/03/12 02:59:20;;;;;;;;;;;;;;;4.51;60.56;99238.91;5109738;28;1521;-77
2023/03/12 03:02:12;;;;;;;;;;;;;;;4.49;60.73;99251.63;5103182;28;2783;-78
2023/03/12 03:05:04;;;;;;;;;;;;;;;4.51;60.58;99249.56;5103566;28;2222;-78
2023/03/12 03:07:56;;;;;;;;;;;;;;;4.49;60.81;99250.81;5110794;28;1895;-78
2023/03/12 03:10:48;;;;;;;;;;;;;;;4.47;60.92;99258.19;5105440;28;2072;-78
2023/03/12 03:13:41;;;;;;;;;;;;;;;4.49;60.76;99242.81;5096748;28;2825;-79
2023/03/12 03:16:32;;;;;;;;;;;;;;;4.52;60.81;99235.19;5101441;28;2701;-78
2023/03/12 03:19:24;;;;;;;;;;;;;;;4.49;60.81;99242.81;5089264;28;3019;-79
2023/03/12 03:22:16;;;;;;;;;;;;;;;4.48;60.83;99249.19;5086042;28;2845;-79
2023/03/12 03:25:09;;;;;;;;;;;;;;;4.46;60.76;99260.03;5091970;28;2408;-79
2023/03/12 03:28:00;;;;;;;;;;;;;;;4.50;60.95;99261.28;5082730;28;2392;-79
2023/03/12 03:30:53;;;;;;;;;;;;;;;4.57;60.71;99261.22;5069300;28;2894;-79
2023/03/12 03:33:47;;;;;;;;;;;;;;;4.51;60.96;99262.09;5067553;28;2365;-81
2023/03/12 03:36:38;;;;;;;;;;;;;;;4.50;60.71;99258.59;5066921;28;2580;-79
2023/03/12 03:39:30;;;;;;;;;;;;;;;4.49;60.88;99261.47;5066102;28;2831;-80
2023/03/12 03:42:22;;;;;;;;;;;;;;;4.53;60.75;99263.50;5066433;28;2855;-79
2023/03/12 03:45:14;;;;;;;;;;;;;;;4.51;60.70;99275.41;5065326;28;2391;-78
2023/03/12 03:48:06;;;;;;;;;;;;;;;4.52;60.83;99259.19;5090238;28;2489;-80
2023/03/12 03:50:58;;;;;;;;;;;;;;;4.54;60.74;99267.00;5055046;28;3341;-79
2023/03/12 03:53:51;;;;;;;;;;;;;;;4.52;60.81;99277.84;5064123;28;2519;-79
2023/03/12 03:56:42;;;;;;;;;;;;;;;4.50;60.83;99274.59;5069306;28;2788;-80
2023/03/12 03:59:35;;;;;;;;;;;;;;;4.51;60.89;99264.75;5065499;28;2815;-80
2023/03/12 04:02:27;;;;;;;;;;;;;;;4.49;61.06;99269.47;5072556;28;3047;-80
2023/03/12 04:05:19;;;;;;;;;;;;;;;4.52;60.92;99283.19;5084373;28;2847;-80
2023/03/12 04:08:10;;;;;;;;;;;;;;;4.52;60.84;99277.03;5078401;28;2725;-80
2023/03/12 04:11:03;;;;;;;;;;;;;;;4.51;60.75;99288.75;5069034;28;3139;-79
2023/03/12 04:13:54;;;;;;;;;;;;;;;4.48;60.94;99292.66;5067012;28;2591;-80
2023/03/12 04:16:46;;;;;;;;;;;;;;;4.54;60.66;99299.81;5076268;28;3244;-81
2023/03/12 04:19:38;;;;;;;;;;;;;;;4.49;60.88;99304.94;5078385;28;3121;-80
2023/03/12 04:22:30;;;;;;;;;;;;;;;4.50;60.96;99303.09;5070059;28;3495;-80
2023/03/12 04:25:22;;;;;;;;;;;;;;;4.51;60.68;99307.41;5076182;28;3006;-80
2023/03/12 04:28:15;;;;;;;;;;;;;;;4.50;60.88;99316.41;5070970;28;3577;-80
2023/03/12 04:31:06;;;;;;;;;;;;;;;4.49;60.71;99312.13;5091338;27;3782;-80
2023/03/12 04:33:58;;;;;;;;;;;;;;;4.49;60.80;99318.28;5094133;28;3462;-81
2023/03/12 04:36:50;;;;;;;;;;;;;;;4.49;60.51;99322.78;5090727;28;3122;-81
2023/03/12 04:39:42;;;;;;;;;;;;;;;4.54;60.53;99320.31;5085524;28;3004;-80
2023/03/12 04:42:34;;;;;;;;;;;;;;;4.55;60.34;99329.94;5089853;28;2497;-80
2023/03/12 04:45:25;;;;;;;;;;;;;;;4.49;60.55;99317.47;5086605;27;2690;-80
2023/03/12 04:48:18;;;;;;;;;;;;;;;4.58;60.34;99316.19;5103499;28;3344;-80
2023/03/12 04:51:09;;;;;;;;;;;;;;;4.53;60.66;99326.69;5087090;27;2903;-79
2023/03/12 04:54:01;;;;;;;;;;;;;;;4.56;60.42;99334.28;5073429;28;3075;-80
2023/03/12 04:56:53;;;;;;;;;;;;;;;4.57;60.47;99335.91;5087957;28;3112;-81
2023/03/12 04:59:45;;;;;;;;;;;;;;;4.52;60.45;99344.53;5086317;28;3783;-79
2023/03/12 05:02:38;;;;;;;;;;;;;;;4.51;60.75;99342.88;5090804;28;2956;-80
2023/03/12 05:05:29;;;;;;;;;;;;;;;4.52;60.51;99343.72;5095243;28;3049;-80
2023/03/12 05:08:20;;;;;;;;;;;;;;;4.52;60.67;99333.84;5091785;28;2676;-80
2023/03/12 05:11:12;;;;;;;;;;;;;;;4.51;60.57;99339.41;5083866;28;3478;-77
2023/03/12 05:14:04;;;;;;;;;;;;;;;4.50;60.59;99346.59;5086480;28;3180;-79
2023/03/12 05:16:57;;;;;;;;;;;;;;;4.47;60.74;99331.03;5087774;28;3215;-79
2023/03/12 05:19:48;;;;;;;;;;;;;;;4.49;60.52;99339.59;5099715;28;2838;-80
2023/03/12 05:22:41;;;;;;;;;;;;;;;4.55;60.37;99338.75;5086561;28;3297;-78
2023/03/12 05:25:32;;;;;;;;;;;;;;;4.53;60.34;99338.19;5085764;28;3141;-78
2023/03/12 05:28:27;;;;;;;;;;;;;;;4.51;60.44;99342.09;5088241;28;2965;-81
2023/03/12 05:31:18;;;;;;;;;;;;;;;4.48;60.40;99337.16;5088523;27;3085;-78
2023/03/12 05:34:09;;;;;;;;;;;;;;;4.57;60.15;99340.41;5092268;28;3414;-78
2023/03/12 05:37:01;;;;;;;;;;;;;;;4.54;60.33;99341.66;5087260;28;3521;-80
2023/03/12 05:39:53;;;;;;;;;;;;;;;4.55;60.28;99353.94;5094581;28;3110;-79
2023/03/12 05:42:45;;;;;;;;;;;;;;;4.55;60.31;99348.63;5087360;28;3581;-78
2023/03/12 05:45:37;;;;;;;;;;;;;;;4.58;59.99;99350.06;5084651;28;2951;-78
2023/03/12 05:48:29;;;;;;;;;;;;;;;4.63;59.84;99351.06;5089226;28;2644;-80
2023/03/12 05:51:21;;;;;;;;;;;;;;;4.58;59.98;99355.38;5102648;27;3927;-80
2023/03/12 05:54:14;;;;;;;;;;;;;;;4.59;59.66;99349.84;5090622;28;3494;-79
2023/03/12 05:57:05;;;;;;;;;;;;;;;4.55;59.82;99352.09;5107140;27;2543;-79
2023/03/12 05:59:56;;;;;;;;;;;;;;;4.51;60.07;99345.56;5089741;28;3198;-82
2023/03/12 06:02:49;;;;;;;;;;;;;;;4.54;59.97;99345.13;5087238;28;2911;-80
2023/03/12 06:05:41;;;;;;;;;;;;;;;4.60;59.68;99345.34;5096151;28;2957;-81
2023/03/12 06:08:32;;;;;;;;;;;;;;;4.59;59.47;99359.69;5090020;28;2678;-80
2023/03/12 06:11:24;;;;;;;;;;;;;;;4.55;59.54;99343.28;5087572;28;3043;-79
2023/03/12 06:14:17;;;;;;;;;;;;;;;4.58;59.50;99340.19;5085135;28;3171;-79
2023/03/12 06:17:08;;;;;;;;;;;;;;;4.59;59.74;99346.34;5088822;27;2838;-80
2023/03/12 06:23:10;;;;;;;;;;;;;;;4.63;59.29;99340.41;5094714;28;3565;-79
2023/03/12 06:26:02;;;;;;;;;;;;;;;4.61;59.37;99342.44;5098289;28;2488;-80
2023/03/12 06:28:53;;;;;;;;;;;;;;;4.56;59.56;99344.94;5078864;28;2452;-81
2023/03/12 06:31:47;;;;;;;;;;;;;;;4.55;59.68;99354.75;5068326;28;2964;-80
2023/03/12 06:34:39;;;;;;;;;;;;;;;4.56;59.60;99347.63;5070832;28;3342;-81
2023/03/12 06:37:31;;;;;;;;;;;;;;;4.57;59.66;99353.75;5078130;28;3675;-80
2023/03/12 06:40:23;;;;;;;;;;;;;;;4.59;59.66;99347.19;5083402;28;3594;-79
2023/03/12 06:43:15;;;;;;;;;;;;;;;4.57;59.77;99343.91;5071151;28;2988;-80
2023/03/12 06:46:07;;;;;;;;;;;;;;;4.53;59.87;99350.69;5069065;28;3011;-80
2023/03/12 06:48:59;;;;;;;;;;;;;;;4.58;59.66;99345.53;5062335;28;3512;-80
2023/03/12 06:51:51;;;;;;;;;;;;;;;4.56;59.52;99347.63;5071096;28;3369;-82
2023/03/12 06:54:43;;;;;;;;;;;;;;;4.63;59.55;99344.91;5065265;28;3218;-81
2023/03/12 06:57:35;;;;;;;;;;;;;;;4.64;59.59;99351.88;5066977;28;2604;-79
2023/03/12 07:00:27;;;;;;;;;;;;;;;4.59;59.73;99349.84;5065067;28;2691;-81
2023/03/12 07:03:18;;;;;;;;;;;;;;;4.62;59.56;99338.75;5068805;28;2524;-80
2023/03/12 07:06:11;;;;;;;;;;;;;;;4.65;59.51;99343.69;5066934;28;2951;-81
2023/03/12 07:09:03;;;;;;;;;;;;;;;4.62;59.90;99344.09;5068400;28;3510;-82
2023/03/12 07:11:54;;;;;;;;;;;;;;;4.57;59.92;99348.44;5069566;28;2828;-82
2023/03/12 07:14:47;;;;;;;;;;;;;;;4.59;59.71;99346.34;5065424;28;2531;-80
2023/03/12 07:17:39;;;;;;;;;;;;;;;4.61;59.82;99354.97;5066781;28;2991;-81
2023/03/12 07:20:31;;;;;;;;;;;;;;;4.64;59.63;99346.53;5072968;28;3011;-81
2023/03/12 07:23:23;;;;;;;;;;;;;;;4.64;59.68;99363.34;5078450;28;2466;-83
2023/03/12 07:26:14;;;;;;;;;;;;;;;4.67;59.64;99360.28;5086300;28;1663;-85
2023/03/12 07:29:06;;;;;;;;;;;;;;;4.62;59.75;99369.94;5100910;28;2250;-81
2023/03/12 07:31:58;;;;;;;;;;;;;;;4.69;59.49;99365.41;5102136;28;2197;-81
2023/03/12 07:34:50;;;;;;;;;;;;;;;4.63;59.69;99366.25;5105816;28;2611;-82
2023/03/12 07:37:41;;;;;;;;;;;;;;;4.57;59.95;99367.91;5108979;28;2820;-82
2023/03/12 07:40:34;;;;;;;;;;;;;;;4.62;59.93;99373.44;5103745;28;2294;-81
2023/03/12 07:43:25;;;;;;;;;;;;;;;4.61;59.86;99374.44;5114147;27;1528;-80
2023/03/12 07:46:18;;;;;;;;;;;;;;;4.65;59.82;99373.03;5110804;27;2202;-82
2023/03/12 07:49:10;;;;;;;;;;;;;;;4.62;59.87;99368.09;5110815;27;2216;-82
2023/03/12 07:52:02;;;;;;;;;;;;;;;4.63;59.97;99380.41;5107665;27;2295;-82
2023/03/12 07:54:55;;;;;;;;;;;;;;;4.68;59.78;99377.13;5109824;27;2191;-82
2023/03/12 07:57:47;;;;;;;;;;;;;;;4.71;59.73;99379.38;5109008;28;2296;-83
2023/03/12 08:00:39;;;;;;;;;;;;;;;4.73;59.50;99380.75;5100632;28;2216;-82
2023/03/12 08:03:31;;;;;;;;;;;;;;;4.68;59.88;99380.59;5098465;22;2764;-82
2023/03/12 08:06:23;;;;;;;;;;;;;;;4.73;59.80;99380.75;5091461;28;2494;-84
2023/03/12 08:09:15;;;;;;;;;;;;;;;4.69;59.82;99378.75;5092510;28;2717;-83
2023/03/12 08:12:06;;;;;;;;;;;;;;;4.70;59.85;99378.53;5090999;28;2326;-83
2023/03/12 08:14:58;;;;;;;;;;;;;;;4.74;59.65;99384.28;5081977;28;2371;-83
2023/03/12 08:17:50;;;;;;;;;;;;;;;4.76;59.78;99384.88;5089904;28;2305;-84
2023/03/12 08:20:42;;;;;;;;;;;;;;;4.73;59.67;99379.94;5090040;28;2238;-81
2023/03/12 08:23:34;;;;;;;;;;;;;;;4.73;59.75;99379.94;5089527;28;2285;-81
2023/03/12 08:26:26;;;;;;;;;;;;;;;4.72;59.81;99378.31;5089881;28;2347;-82
2023/03/12 08:29:18;;;;;;;;;;;;;;;4.72;59.86;99381.00;5086429;28;2883;-81
2023/03/12 08:32:10;;;;;;;;;;;;;;;4.79;59.71;99379.09;5087483;28;2308;-80
2023/03/12 08:35:04;;;;;;;;;;;;;;;4.79;59.59;99392.44;5084600;28;2840;-83
2023/03/12 08:37:56;;;;;;;;;;;;;;;4.80;59.76;99383.44;5088877;28;2445;-81
2023/03/12 08:40:48;;;;;;;;;;;;;;;4.85;59.59;99393.47;5087043;28;2607;-82
2023/03/12 08:43:39;;;;;;;;;;;;;;;4.80;59.48;99394.09;5087302;28;2411;-82
2023/03/12 08:46:31;;;;;;;;;;;;;;;4.86;59.51;99397.78;5075863;28;2409;-82
2023/03/12 08:49:24;;;;;;;;;;;;;;;4.88;59.57;99404.56;5090661;28;2296;-82
2023/03/12 08:52:16;;;;;;;;;;;;;;;4.86;59.64;99403.13;5081232;28;2581;-82
2023/03/12 08:55:07;;;;;;;;;;;;;;;4.82;59.78;99409.88;5086349;28;2435;-81
2023/03/12 08:58:00;;;;;;;;;;;;;;;4.86;59.66;99408.47;5082273;28;2565;-82
2023/03/12 09:00:52;;;;;;;;;;;;;;;4.86;59.30;99406.59;5091331;28;2388;-82
2023/03/12 09:03:44;;;;;;;;;;;;;;;4.87;59.60;99402.91;5056718;28;2385;-82
2023/03/12 09:06:37;;;;;;;;;;;;;;;4.88;59.55;99401.03;5065089;28;2503;-83
2023/03/12 09:09:28;;;;;;;;;;;;;;;4.89;59.47;99408.84;5070677;28;2299;-82
2023/03/12 09:12:20;;;;;;;;;;;;;;;4.95;59.42;99413.34;5072141;28;2318;-83
2023/03/12 09:15:11;;;;;;;;;;;;;;;4.92;59.37;99418.28;5063812;28;2819;-82
2023/03/12 09:18:03;;;;;;;;;;;;;;;4.93;59.58;99420.72;5071082;28;2207;-82
2023/03/12 09:20:54;;;;;;;;;;;;;;;4.92;59.41;99421.78;5073186;28;2520;-83
2023/03/12 09:23:46;;;;;;;;;;;;;;;5.00;59.29;99421.53;5076402;28;2421;-83
2023/03/12 09:26:38;;;;;;;;;;;;;;;4.95;59.22;99423.19;5068399;28;2341;-83
2023/03/12 09:29:29;;;;;;;;;;;;;;;4.97;59.17;99419.28;5067716;28;1918;-82
2023/03/12 09:32:21;;;;;;;;;;;;;;;5.01;58.93;99423.16;5067001;28;2071;-81
2023/03/12 09:35:13;;;;;;;;;;;;;;;5.04;59.03;99413.13;5069099;28;3369;-83
2023/03/12 09:38:05;;;;;;;;;;;;;;;5.07;59.05;99412.69;5064519;28;2321;-83
2023/03/12 09:40:57;;;;;;;;;;;;;;;5.01;59.24;99419.69;5065728;28;2667;-83
2023/03/12 09:43:49;;;;;;;;;;;;;;;5.07;59.11;99426.03;5062727;28;2203;-82
2023/03/12 09:46:41;;;;;;;;;;;;;;;5.01;59.42;99431.19;5064112;28;2380;-83
2023/03/12 09:52:23;;;;;;;;;;;;;;;5.11;59.27;99433.38;5020172;28;2229;-84
2023/03/12 09:55:15;;;;;;;;;;;;;;;5.11;59.18;99427.22;5025708;28;1404;-82
2023/03/12 09:58:06;;;;;;;;;;;;;;;5.08;59.43;99422.31;5013187;28;2101;-83
2023/03/12 10:00:58;;;;;;;;;;;;;;;5.10;59.37;99422.94;4994315;28;1549;-82
2023/03/12 10:03:50;;;;;;;;;;;;;;;5.12;59.25;99421.69;4995827;28;1568;-84
2023/03/12 10:06:41;;;;;;;;;;;;;;;5.15;59.32;99425.81;4993065;28;2502;-82
2023/03/12 10:09:33;;;;;;;;;;;;;;;5.18;59.26;99422.72;4994010;28;2164;-82
2023/03/12 10:12:25;;;;;;;;;;;;;;;5.30;58.83;99428.19;4994757;28;1931;-81
2023/03/12 10:15:17;;;;;;;;;;;;;;;5.21;59.03;99423.09;4994980;28;2629;-82
2023/03/12 10:18:09;;;;;;;;;;;;;;;5.16;59.24;99422.91;4999424;28;2411;-83
2023/03/12 10:21:00;;;;;;;;;;;;;;;5.27;58.88;99424.09;4993118;28;1566;-83
2023/03/12 10:23:51;;;;;;;;;;;;;;;5.32;58.60;99420.78;4992778;28;2130;-83
2023/03/12 10:26:44;;;;;;;;;;;;;;;5.36;58.86;99416.66;5000770;28;1553;-82
2023/03/12 10:29:36;;;;;;;;;;;;;;;5.31;59.08;99408.47;4995172;28;2268;-81
2023/03/12 10:32:27;;;;;;;;;;;;;;;5.28;59.35;99409.72;4992927;28;2010;-83
2023/03/12 10:35:18;;;;;;;;;;;;;;;5.29;59.38;99410.53;4996964;28;1459;-82
2023/03/12 10:38:10;;;;;;;;;;;;;;;5.38;59.11;99414.59;4998097;28;1522;-85
2023/03/12 10:41:01;;;;;;;;;;;;;;;5.29;59.56;99422.00;4998820;28;1273;-83
2023/03/12 10:43:53;;;;;;;;;;;;;;;5.29;59.66;99421.19;4990478;28;1553;-83
2023/03/12 10:46:45;;;;;;;;;;;;;;;5.31;59.48;99419.16;4994337;28;1576;-82
2023/03/12 10:49:37;;;;;;;;;;;;;;;5.34;59.41;99413.38;4996888;28;2294;-83
2023/03/12 10:52:29;;;;;;;;;;;;;;;5.40;59.38;99421.34;5012547;28;2399;-82
2023/03/12 10:55:21;;;;;;;;;;;;;;;5.38;59.51;99412.75;5009740;28;2345;-81
2023/03/12 10:58:12;;;;;;;;;;;;;;;5.41;59.36;99420.34;5067004;23;2179;-82
2023/03/12 11:01:04;;;;;;;;;;;;;;;5.42;59.29;99419.28;5073716;28;2059;-81
2023/03/12 11:03:56;;;;;;;;;;;;;;;5.43;59.38;99423.59;5064719;28;2140;-81
2023/03/12 11:06:48;;;;;;;;;;;;;;;5.45;59.46;99423.41;5052073;28;1984;-81
2023/03/12 11:09:40;;;;;;;;;;;;;;;5.53;59.10;99422.31;5053125;28;2311;-82
2023/03/12 11:12:33;;;;;;;;;;;;;;;5.51;59.20;99421.72;5027814;28;2210;-80
2023/03/12 11:15:25;;;;;;;;;;;;;;;5.49;59.47;99426.44;5028303;28;2612;-81
2023/03/12 11:18:16;;;;;;;;;;;;;;;5.46;59.65;99430.38;5034968;28;2309;-81
2023/03/12 11:21:08;;;;;;;;;;;;;;;5.44;59.59;99425.25;5036026;28;2323;-81
2023/03/12 11:24:01;;;;;;;;;;;;;;;5.53;59.66;99420.47;5031646;28;2135;-81
2023/03/12 11:26:53;;;;;;;;;;;;;;;5.50;59.68;99414.72;5027172;28;2729;-87
2023/03/12 11:29:47;;;;;;;;;;;;;;;5.54;59.71;99416.75;5025346;28;2182;-83
2023/03/12 11:32:38;;;;;;;;;;;;;;;5.55;59.79;99420.25;5031352;28;1825;-80
2023/03/12 11:35:31;;;;;;;;;;;;;;;5.58;59.44;99412.63;5032439;28;2487;-81
2023/03/12 11:38:23;;;;;;;;;;;;;;;5.56;59.64;99413.88;5026840;28;2172;-80
2023/03/12 11:41:15;;;;;;;;;;;;;;;5.61;59.31;99411.38;5027405;28;2182;-81
2023/03/12 11:44:07;;;;;;;;;;;;;;;5.68;59.19;99414.84;5032839;28;2072;-80
2023/03/12 11:46:59;;;;;;;;;;;;;;;5.69;59.11;99414.59;5024783;28;1834;-80
2023/03/12 11:49:51;;;;;;;;;;;;;;;5.64;59.15;99413.63;5030753;28;2206;-81
2023/03/12 11:52:43;;;;;;;;;;;;;;;5.60;59.46;99410.56;5035211;28;2301;-80
2023/03/12 11:55:35;;;;;;;;;;;;;;;5.64;59.49;99405.59;5033033;28;2162;-81
2023/03/12 11:58:27;;;;;;;;;;;;;;;5.64;59.58;99413.63;5026770;28;2126;-81
2023/03/12 12:01:19;;;;;;;;;;;;;;;5.60;59.53;99421.25;5034289;28;2064;-80
2023/03/12 12:04:11;;;;;;;;;;;;;;;5.64;59.42;99411.75;5035508;28;3422;-81
2023/03/12 12:07:03;;;;;;;;;;;;;;;5.62;59.32;99405.03;5040158;28;2246;-81
2023/03/12 12:09:55;;;;;;;;;;;;;;;5.66;59.40;99409.69;5039630;28;2510;-81
2023/03/12 12:12:47;;;;;;;;;;;;;;;5.66;59.11;99409.69;5030446;28;2221;-80
2023/03/12 12:15:38;;;;;;;;;;;;;;;5.67;59.19;99403.31;5030760;28;3473;-82
2023/03/12 12:18:29;;;;;;;;;;;;;;;5.64;59.18;99405.59;5027811;28;3678;-81
2023/03/12 12:21:21;;;;;;;;;;;;;;;5.66;59.40;99400.88;5030036;28;2361;-80
2023/03/12 12:24:13;;;;;;;;;;;;;;;5.68;59.58;99398.81;5035492;28;994;-81
2023/03/12 12:27:05;;;;;;;;;;;;;;;5.72;59.34;99402.69;5029497;28;2456;-81
2023/03/12 12:29:56;;;;;;;;;;;;;;;5.79;59.13;99405.28;5031181;28;2254;-81
2023/03/12 12:32:48;;;;;;;;;;;;;;;5.77;59.02;99407.38;5036560;28;1697;-81
2023/03/12 12:35:40;;;;;;;;;;;;;;;5.72;59.53;99392.00;5033163;28;2549;-80
2023/03/12 12:38:32;;;;;;;;;;;;;;;5.72;59.75;99397.34;5025449;28;2646;-81
2023/03/12 12:41:24;;;;;;;;;;;;;;;5.76;59.37;99397.72;5031390;28;1308;-81
2023/03/12 12:44:16;;;;;;;;;;;;;;;5.76;59.51;99393.19;5034159;28;1414;-81
2023/03/12 12:47:12;;;;;;;;;;;;;;;5.80;59.62;99399.75;5031688;28;2302;-81
2023/03/12 12:50:04;;;;;;;;;;;;;;;5.75;59.66;99393.41;5029214;28;2404;-81
2023/03/12 12:52:55;;;;;;;;;;;;;;;5.77;59.56;99396.69;5034178;28;2354;-81
2023/03/12 12:55:47;;;;;;;;;;;;;;;5.75;59.90;99396.91;5027291;28;2301;-83
2023/03/12 12:58:39;;;;;;;;;;;;;;;5.80;59.69;99388.25;5027281;28;2294;-82
2023/03/12 13:01:30;;;;;;;;;;;;;;;5.83;59.80;99387.81;5024681;28;2347;-80
2023/03/12 13:04:22;;;;;;;;;;;;;;;5.77;60.00;99392.16;5026847;28;2306;-83
2023/03/12 13:07:13;;;;;;;;;;;;;;;5.76;60.15;99393.19;5026502;28;2491;-82
2023/03/12 13:10:06;;;;;;;;;;;;;;;5.82;59.80;99395.00;5031460;28;2400;-82
2023/03/12 13:12:59;;;;;;;;;;;;;;;5.79;60.09;99392.75;5027709;28;1736;-80
2023/03/12 13:15:51;;;;;;;;;;;;;;;5.80;59.85;99381.03;5028774;28;2811;-81
2023/03/12 13:18:42;;;;;;;;;;;;;;;5.79;60.08;99381.25;5034212;28;1122;-79
2023/03/12 13:21:34;;;;;;;;;;;;;;;5.83;59.94;99387.81;5029940;28;2435;-80
2023/03/12 13:24:26;;;;;;;;;;;;;;;5.84;59.95;99384.91;5038525;28;1465;-80
2023/03/12 13:27:18;;;;;;;;;;;;;;;5.82;60.32;99378.94;5032944;28;2661;-80
2023/03/12 13:30:10;;;;;;;;;;;;;;;5.83;60.14;99385.13;5024617;28;2331;-79
2023/03/12 13:33:05;;;;;;;;;;;;;;;5.84;60.27;99384.91;5028340;28;2258;-81
2023/03/12 13:35:57;;;;;;;;;;;;;;;5.85;60.05;99378.56;5032373;28;1548;-80
2023/03/12 13:38:49;;;;;;;;;;;;;;;5.91;59.93;99374.16;5027043;28;2337;-80
2023/03/12 13:41:41;;;;;;;;;;;;;;;5.90;60.18;99369.88;5024492;28;2447;-80
2023/03/12 13:44:33;;;;;;;;;;;;;;;5.84;60.45;99363.53;5030047;28;2923;-81
2023/03/12 13:47:25;;;;;;;;;;;;;;;5.86;60.40;99363.34;5026983;28;2337;-80
2023/03/12 13:50:17;;;;;;;;;;;;;;;5.88;60.03;99364.75;5035286;28;2517;-80
2023/03/12 13:53:09;;;;;;;;;;;;;;;5.85;60.52;99365.19;5031317;28;2401;-79
2023/03/12 13:56:01;;;;;;;;;;;;;;;5.83;60.57;99366.44;5031518;28;2212;-80
2023/03/12 13:58:54;;;;;;;;;;;;;;;5.85;60.34;99357.16;5035826;28;2322;-81
2023/03/12 14:01:46;;;;;;;;;;;;;;;5.86;60.44;99350.78;5031942;28;2041;-80
2023/03/12 14:04:41;;;;;;;;;;;;;;;5.90;60.42;99354.66;5027960;28;2416;-80
2023/03/12 14:07:36;;;;;;;;;;;;;;;5.87;60.46;99355.06;5027777;28;1988;-79
2023/03/12 14:10:27;;;;;;;;;;;;;;;5.87;60.54;99357.75;5025350;28;2337;-80
2023/03/12 14:13:21;;;;;;;;;;;;;;;5.90;60.49;99359.19;5032217;28;2177;-81
2023/03/12 14:16:13;;;;;;;;;;;;;;;5.91;60.37;99367.00;5029439;28;2601;-80
2023/03/12 14:19:04;;;;;;;;;;;;;;;5.88;60.60;99348.72;5031351;28;2448;-80
2023/03/12 14:21:56;;;;;;;;;;;;;;;5.92;60.49;99354.44;5026343;28;1003;-79
2023/03/12 14:24:48;;;;;;;;;;;;;;;5.96;60.20;99354.84;5031019;28;1628;-79
2023/03/12 14:27:40;;;;;;;;;;;;;;;5.90;60.58;99345.81;5012776;28;2833;-80
2023/03/12 14:30:36;;;;;;;;;;;;;;;5.90;60.73;99343.94;5016406;28;2529;-81
2023/03/12 14:33:31;;;;;;;;;;;;;;;5.94;60.47;99341.69;5012848;28;2201;-80
2023/03/12 14:36:30;;;;;;;;;;;;;;;5.89;60.79;99336.97;5015404;28;2826;-80
2023/03/12 14:39:22;;;;;;;;;;;;;;;5.94;60.55;99343.53;5010226;28;2345;-80
2023/03/12 14:42:15;;;;;;;;;;;;;;;5.92;60.55;99331.19;5015674;28;2838;-80
2023/03/12 14:45:06;;;;;;;;;;;;;;;5.92;60.83;99339.22;5011094;28;2785;-81
2023/03/12 14:47:58;;;;;;;;;;;;;;;5.90;60.66;99330.59;5011413;28;2741;-83
2023/03/12 14:50:50;;;;;;;;;;;;;;;5.92;60.86;99319.69;5010429;28;2397;-82
2023/03/12 14:53:50;;;;;;;;;;;;;;;5.92;60.87;99333.06;5012393;28;2686;-81
2023/03/12 14:56:42;;;;;;;;;;;;;;;5.92;60.89;99330.38;5010604;28;2599;-82
2023/03/12 14:59:36;;;;;;;;;;;;;;;5.94;60.93;99335.53;5000601;28;2384;-81
2023/03/12 15:02:28;;;;;;;;;;;;;;;5.94;60.80;99336.34;4994538;28;2546;-81
2023/03/12 15:05:20;;;;;;;;;;;;;;;5.95;60.75;99338.00;4995093;28;2378;-82
2023/03/12 15:08:19;;;;;;;;;;;;;;;5.96;60.92;99331.59;4996855;28;2573;-80
2023/03/12 15:11:11;;;;;;;;;;;;;;;5.97;60.71;99338.59;5000981;28;2424;-79
2023/03/12 15:14:03;;;;;;;;;;;;;;;5.98;60.74;99332.22;5000888;28;2301;-79
2023/03/12 15:16:57;;;;;;;;;;;;;;;5.99;60.74;99333.03;4993663;28;2513;-82
2023/03/12 15:19:49;;;;;;;;;;;;;;;6.01;60.75;99333.63;4994332;28;2920;-79
2023/03/12 15:22:44;;;;;;;;;;;;;;;5.97;60.79;99321.72;4994361;28;3274;-79
2023/03/12 15:25:37;;;;;;;;;;;;;;;5.98;60.87;99310.81;4994451;28;2954;-80